sensor_id;sensor_type;location;lat;lon;timestamp;temperature;humidity
66086;DHT22;52868;49.758;9.586;2022-10-30T00:02:12;15.40;82.00
66086;DHT22;52868;49.758;9.586;2022-10-30T00:04:37;15.40;82.00
66086;DHT22;52868;49.758;9.586;2022-10-30T00:07:03;15.40;81.90
66086;DHT22;52868;49.758;9.586;2022-10-30T00:09:28;15.40;81.80
66086;DHT22;52868;49.758;9.586;2022-10-30T00:11:54;15.40;81.90
66086;DHT22;52868;49.758;9.586;2022-10-30T00:14:20;15.30;81.80
66086;DHT22;52868;49.758;9.586;2022-10-30T00:16:45;15.40;81.80
66086;DHT22;52868;49.758;9.586;2022-10-30T00:19:11;15.40;81.80
66086;DHT22;52868;49.758;9.586;2022-10-30T00:21:36;15.40;81.80
66086;DHT22;52868;49.758;9.586;2022-10-30T00:24:02;15.40;81.80
66086;DHT22;52868;49.758;9.586;2022-10-30T00:26:28;15.40;81.80
66086;DHT22;52868;49.758;9.586;2022-10-30T00:28:54;15.40;81.80
66086;DHT22;52868;49.758;9.586;2022-10-30T00:31:21;15.40;81.70
66086;DHT22;52868;49.758;9.586;2022-10-30T00:33:54;15.40;81.70
66086;DHT22;52868;49.758;9.586;2022-10-30T00:36:20;15.40;81.80
66086;DHT22;52868;49.758;9.586;2022-10-30T00:38:46;15.30;81.80
66086;DHT22;52868;49.758;9.586;2022-10-30T00:41:19;15.30;81.90
66086;DHT22;52868;49.758;9.586;2022-10-30T00:43:45;15.30;81.70
66086;DHT22;52868;49.758;9.586;2022-10-30T00:48:40;15.30;81.70
66086;DHT22;52868;49.758;9.586;2022-10-30T00:51:07;15.30;81.70
66086;DHT22;52868;49.758;9.586;2022-10-30T00:53:34;15.40;81.70
66086;DHT22;52868;49.758;9.586;2022-10-30T00:56:03;15.30;81.50
66086;DHT22;52868;49.758;9.586;2022-10-30T00:58:33;15.30;81.60
66086;DHT22;52868;49.758;9.586;2022-10-30T01:01:04;15.30;81.50
66086;DHT22;52868;49.758;9.586;2022-10-30T01:03:32;15.30;81.50
66086;DHT22;52868;49.758;9.586;2022-10-30T01:06:03;15.30;81.60
66086;DHT22;52868;49.758;9.586;2022-10-30T01:08:31;15.30;81.50
66086;DHT22;52868;49.758;9.586;2022-10-30T01:10:58;15.30;81.60
66086;DHT22;52868;49.758;9.586;2022-10-30T01:13:25;15.20;82.00
66086;DHT22;52868;49.758;9.586;2022-10-30T01:27:54;15.20;81.80
66086;DHT22;52868;49.758;9.586;2022-10-30T01:30:42;15.30;81.70
66086;DHT22;52868;49.758;9.586;2022-10-30T01:35:56;15.30;81.50
66086;DHT22;52868;49.758;9.586;2022-10-30T01:41:11;15.20;81.60
66086;DHT22;52868;49.758;9.586;2022-10-30T01:43:37;15.20;81.60
66086;DHT22;52868;49.758;9.586;2022-10-30T01:54:51;15.30;81.60
66086;DHT22;52868;49.758;9.586;2022-10-30T02:00:03;15.30;81.50
66086;DHT22;52868;49.758;9.586;2022-10-30T02:02:28;15.30;81.60
66086;DHT22;52868;49.758;9.586;2022-10-30T02:04:55;15.30;81.50
66086;DHT22;52868;49.758;9.586;2022-10-30T02:07:21;15.30;81.40
66086;DHT22;52868;49.758;9.586;2022-10-30T02:09:47;15.30;81.30
66086;DHT22;52868;49.758;9.586;2022-10-30T02:12:14;15.30;81.40
66086;DHT22;52868;49.758;9.586;2022-10-30T02:14:45;15.30;81.50
66086;DHT22;52868;49.758;9.586;2022-10-30T02:17:12;15.20;81.40
66086;DHT22;52868;49.758;9.586;2022-10-30T02:19:38;15.20;81.40
66086;DHT22;52868;49.758;9.586;2022-10-30T02:22:04;15.10;81.40
66086;DHT22;52868;49.758;9.586;2022-10-30T02:24:31;15.10;81.50
66086;DHT22;52868;49.758;9.586;2022-10-30T02:26:56;15.00;81.60
66086;DHT22;52868;49.758;9.586;2022-10-30T02:29:22;14.90;81.60
66086;DHT22;52868;49.758;9.586;2022-10-30T02:31:48;15.00;81.60
66086;DHT22;52868;49.758;9.586;2022-10-30T02:34:14;15.10;81.50
66086;DHT22;52868;49.758;9.586;2022-10-30T02:36:41;15.10;81.40
66086;DHT22;52868;49.758;9.586;2022-10-30T02:39:07;15.10;81.40
66086;DHT22;52868;49.758;9.586;2022-10-30T02:41:33;15.00;81.40
66086;DHT22;52868;49.758;9.586;2022-10-30T02:43:58;14.90;81.40
66086;DHT22;52868;49.758;9.586;2022-10-30T02:46:24;14.90;81.40
66086;DHT22;52868;49.758;9.586;2022-10-30T02:48:50;15.00;81.60
66086;DHT22;52868;49.758;9.586;2022-10-30T02:51:16;15.00;81.40
66086;DHT22;52868;49.758;9.586;2022-10-30T02:53:41;15.10;81.40
66086;DHT22;52868;49.758;9.586;2022-10-30T02:56:09;15.10;81.30
66086;DHT22;52868;49.758;9.586;2022-10-30T02:58:36;15.10;81.20
66086;DHT22;52868;49.758;9.586;2022-10-30T03:01:09;15.10;81.40
66086;DHT22;52868;49.758;9.586;2022-10-30T03:03:35;15.10;81.20
66086;DHT22;52868;49.758;9.586;2022-10-30T03:06:03;15.10;81.30
66086;DHT22;52868;49.758;9.586;2022-10-30T03:08:29;15.10;81.20
66086;DHT22;52868;49.758;9.586;2022-10-30T03:11:09;15.10;81.40
66086;DHT22;52868;49.758;9.586;2022-10-30T03:13:36;15.20;81.20
66086;DHT22;52868;49.758;9.586;2022-10-30T03:16:04;15.10;81.20
66086;DHT22;52868;49.758;9.586;2022-10-30T03:18:31;15.10;81.20
66086;DHT22;52868;49.758;9.586;2022-10-30T03:21:01;15.10;81.10
66086;DHT22;52868;49.758;9.586;2022-10-30T03:23:28;15.10;81.20
66086;DHT22;52868;49.758;9.586;2022-10-30T03:25:56;15.00;81.10
66086;DHT22;52868;49.758;9.586;2022-10-30T03:28:23;15.00;81.30
66086;DHT22;52868;49.758;9.586;2022-10-30T03:30:50;15.00;81.30
66086;DHT22;52868;49.758;9.586;2022-10-30T03:33:16;15.00;81.10
66086;DHT22;52868;49.758;9.586;2022-10-30T03:35:44;15.00;81.30
66086;DHT22;52868;49.758;9.586;2022-10-30T03:38:11;15.10;81.30
66086;DHT22;52868;49.758;9.586;2022-10-30T03:40:38;15.10;81.30
66086;DHT22;52868;49.758;9.586;2022-10-30T03:43:03;15.10;81.30
66086;DHT22;52868;49.758;9.586;2022-10-30T03:45:31;15.10;81.50
66086;DHT22;52868;49.758;9.586;2022-10-30T03:48:01;15.00;81.60
66086;DHT22;52868;49.758;9.586;2022-10-30T03:50:27;14.90;81.90
66086;DHT22;52868;49.758;9.586;2022-10-30T03:52:54;14.90;81.90
66086;DHT22;52868;49.758;9.586;2022-10-30T03:55:20;14.90;81.80
66086;DHT22;52868;49.758;9.586;2022-10-30T03:57:46;14.80;81.70
66086;DHT22;52868;49.758;9.586;2022-10-30T04:00:12;14.90;81.70
66086;DHT22;52868;49.758;9.586;2022-10-30T04:02:38;14.90;81.60
66086;DHT22;52868;49.758;9.586;2022-10-30T04:05:04;14.90;81.40
66086;DHT22;52868;49.758;9.586;2022-10-30T04:07:30;14.90;81.50
66086;DHT22;52868;49.758;9.586;2022-10-30T04:09:55;14.90;81.50
66086;DHT22;52868;49.758;9.586;2022-10-30T04:12:21;14.80;81.60
66086;DHT22;52868;49.758;9.586;2022-10-30T04:14:46;14.90;81.60
66086;DHT22;52868;49.758;9.586;2022-10-30T04:17:12;15.00;81.50
66086;DHT22;52868;49.758;9.586;2022-10-30T04:19:38;15.00;81.50
66086;DHT22;52868;49.758;9.586;2022-10-30T04:22:04;15.00;81.30
66086;DHT22;52868;49.758;9.586;2022-10-30T04:24:30;15.00;81.30
66086;DHT22;52868;49.758;9.586;2022-10-30T04:26:55;15.00;81.30
66086;DHT22;52868;49.758;9.586;2022-10-30T04:29:21;15.10;81.30
66086;DHT22;52868;49.758;9.586;2022-10-30T04:31:46;15.10;81.20
66086;DHT22;52868;49.758;9.586;2022-10-30T04:34:12;15.10;81.10
66086;DHT22;52868;49.758;9.586;2022-10-30T04:36:38;15.10;81.10
66086;DHT22;52868;49.758;9.586;2022-10-30T04:39:03;15.10;81.00
66086;DHT22;52868;49.758;9.586;2022-10-30T04:41:29;15.10;81.20
66086;DHT22;52868;49.758;9.586;2022-10-30T04:43:55;15.10;81.10
66086;DHT22;52868;49.758;9.586;2022-10-30T04:46:21;15.10;81.10
66086;DHT22;52868;49.758;9.586;2022-10-30T04:48:46;15.10;81.10
66086;DHT22;52868;49.758;9.586;2022-10-30T04:51:12;15.20;81.10
66086;DHT22;52868;49.758;9.586;2022-10-30T04:53:38;15.20;81.00
66086;DHT22;52868;49.758;9.586;2022-10-30T04:56:04;15.20;81.00
66086;DHT22;52868;49.758;9.586;2022-10-30T04:58:30;15.20;80.90
66086;DHT22;52868;49.758;9.586;2022-10-30T05:01:00;15.00;81.10
66086;DHT22;52868;49.758;9.586;2022-10-30T05:03:27;15.00;81.20
66086;DHT22;52868;49.758;9.586;2022-10-30T05:06:01;15.00;81.20
66086;DHT22;52868;49.758;9.586;2022-10-30T05:08:27;15.10;81.20
66086;DHT22;52868;49.758;9.586;2022-10-30T05:10:53;15.10;81.10
66086;DHT22;52868;49.758;9.586;2022-10-30T05:13:20;15.10;81.10
66086;DHT22;52868;49.758;9.586;2022-10-30T05:15:46;15.20;81.10
66086;DHT22;52868;49.758;9.586;2022-10-30T05:18:11;15.10;81.20
66086;DHT22;52868;49.758;9.586;2022-10-30T05:20:37;15.00;81.10
66086;DHT22;52868;49.758;9.586;2022-10-30T05:23:03;15.00;81.20
66086;DHT22;52868;49.758;9.586;2022-10-30T05:25:29;15.00;81.30
66086;DHT22;52868;49.758;9.586;2022-10-30T05:28:02;15.00;81.30
66086;DHT22;52868;49.758;9.586;2022-10-30T05:30:29;15.00;81.30
66086;DHT22;52868;49.758;9.586;2022-10-30T05:33:06;15.00;81.40
66086;DHT22;52868;49.758;9.586;2022-10-30T05:35:33;15.10;81.20
66086;DHT22;52868;49.758;9.586;2022-10-30T05:38:00;15.00;81.20
66086;DHT22;52868;49.758;9.586;2022-10-30T05:40:26;15.00;81.10
66086;DHT22;52868;49.758;9.586;2022-10-30T05:42:52;15.00;81.10
66086;DHT22;52868;49.758;9.586;2022-10-30T05:45:18;14.90;80.90
66086;DHT22;52868;49.758;9.586;2022-10-30T05:50:21;15.00;81.10
66086;DHT22;52868;49.758;9.586;2022-10-30T05:52:47;15.00;81.10
66086;DHT22;52868;49.758;9.586;2022-10-30T05:55:12;15.00;81.10
66086;DHT22;52868;49.758;9.586;2022-10-30T05:57:38;15.00;81.30
66086;DHT22;52868;49.758;9.586;2022-10-30T06:00:04;15.00;81.20
66086;DHT22;52868;49.758;9.586;2022-10-30T06:02:30;14.90;81.10
66086;DHT22;52868;49.758;9.586;2022-10-30T06:04:55;14.90;81.30
66086;DHT22;52868;49.758;9.586;2022-10-30T06:07:21;15.00;81.20
66086;DHT22;52868;49.758;9.586;2022-10-30T06:09:46;15.00;81.10
66086;DHT22;52868;49.758;9.586;2022-10-30T06:12:12;15.00;81.30
66086;DHT22;52868;49.758;9.586;2022-10-30T06:14:38;15.00;81.20
66086;DHT22;52868;49.758;9.586;2022-10-30T06:17:03;15.00;81.10
66086;DHT22;52868;49.758;9.586;2022-10-30T06:19:29;15.00;81.20
66086;DHT22;52868;49.758;9.586;2022-10-30T06:21:54;15.10;81.00
66086;DHT22;52868;49.758;9.586;2022-10-30T06:24:20;14.90;81.10
66086;DHT22;52868;49.758;9.586;2022-10-30T06:26:46;14.90;81.10
66086;DHT22;52868;49.758;9.586;2022-10-30T06:29:11;14.90;81.20
66086;DHT22;52868;49.758;9.586;2022-10-30T06:31:37;15.00;81.30
66086;DHT22;52868;49.758;9.586;2022-10-30T06:34:02;15.00;81.10
66086;DHT22;52868;49.758;9.586;2022-10-30T06:36:28;14.90;81.20
66086;DHT22;52868;49.758;9.586;2022-10-30T06:38:54;14.90;81.20
66086;DHT22;52868;49.758;9.586;2022-10-30T06:41:19;15.00;81.30
66086;DHT22;52868;49.758;9.586;2022-10-30T06:43:45;15.00;81.20
66086;DHT22;52868;49.758;9.586;2022-10-30T06:46:11;15.00;81.10
66086;DHT22;52868;49.758;9.586;2022-10-30T06:48:36;15.00;81.20
66086;DHT22;52868;49.758;9.586;2022-10-30T06:51:02;14.90;81.30
66086;DHT22;52868;49.758;9.586;2022-10-30T06:53:28;15.00;81.30
66086;DHT22;52868;49.758;9.586;2022-10-30T06:55:58;15.10;81.10
66086;DHT22;52868;49.758;9.586;2022-10-30T06:58:24;15.00;80.90
66086;DHT22;52868;49.758;9.586;2022-10-30T07:00:50;15.10;81.10
66086;DHT22;52868;49.758;9.586;2022-10-30T07:03:16;15.10;81.00
66086;DHT22;52868;49.758;9.586;2022-10-30T07:05:42;15.10;80.90
66086;DHT22;52868;49.758;9.586;2022-10-30T07:08:07;15.00;81.00
66086;DHT22;52868;49.758;9.586;2022-10-30T07:10:33;14.90;81.00
66086;DHT22;52868;49.758;9.586;2022-10-30T07:12:59;14.90;81.30
66086;DHT22;52868;49.758;9.586;2022-10-30T07:15:25;15.00;81.10
66086;DHT22;52868;49.758;9.586;2022-10-30T07:17:55;15.00;80.90
66086;DHT22;52868;49.758;9.586;2022-10-30T07:20:21;15.00;81.10
66086;DHT22;52868;49.758;9.586;2022-10-30T07:22:47;15.00;81.00
66086;DHT22;52868;49.758;9.586;2022-10-30T07:25:13;15.00;81.10
66086;DHT22;52868;49.758;9.586;2022-10-30T07:27:46;15.00;81.30
66086;DHT22;52868;49.758;9.586;2022-10-30T07:30:13;14.90;81.10
66086;DHT22;52868;49.758;9.586;2022-10-30T07:32:39;15.00;81.20
66086;DHT22;52868;49.758;9.586;2022-10-30T07:35:06;15.00;81.10
66086;DHT22;52868;49.758;9.586;2022-10-30T07:37:32;14.90;81.10
66086;DHT22;52868;49.758;9.586;2022-10-30T07:39:57;15.00;81.20
66086;DHT22;52868;49.758;9.586;2022-10-30T07:42:23;15.10;81.10
66086;DHT22;52868;49.758;9.586;2022-10-30T07:44:48;15.00;81.00
66086;DHT22;52868;49.758;9.586;2022-10-30T07:47:14;15.00;81.10
66086;DHT22;52868;49.758;9.586;2022-10-30T07:49:40;14.90;81.20
66086;DHT22;52868;49.758;9.586;2022-10-30T07:52:05;14.90;81.30
66086;DHT22;52868;49.758;9.586;2022-10-30T07:54:31;14.80;81.50
66086;DHT22;52868;49.758;9.586;2022-10-30T07:56:57;14.80;81.60
66086;DHT22;52868;49.758;9.586;2022-10-30T07:59:24;14.80;81.60
66086;DHT22;52868;49.758;9.586;2022-10-30T08:01:49;14.90;81.40
66086;DHT22;52868;49.758;9.586;2022-10-30T08:04:15;14.80;81.50
66086;DHT22;52868;49.758;9.586;2022-10-30T08:06:41;14.90;81.40
66086;DHT22;52868;49.758;9.586;2022-10-30T08:09:07;14.90;81.40
66086;DHT22;52868;49.758;9.586;2022-10-30T08:11:32;14.90;81.40
66086;DHT22;52868;49.758;9.586;2022-10-30T08:13:58;15.00;81.30
66086;DHT22;52868;49.758;9.586;2022-10-30T08:16:24;15.00;81.40
66086;DHT22;52868;49.758;9.586;2022-10-30T08:18:50;15.00;81.30
66086;DHT22;52868;49.758;9.586;2022-10-30T08:21:19;15.00;81.30
66086;DHT22;52868;49.758;9.586;2022-10-30T08:23:44;14.90;81.30
66086;DHT22;52868;49.758;9.586;2022-10-30T08:26:10;15.00;81.30
66086;DHT22;52868;49.758;9.586;2022-10-30T08:28:35;15.00;81.30
66086;DHT22;52868;49.758;9.586;2022-10-30T08:31:02;15.00;81.20
66086;DHT22;52868;49.758;9.586;2022-10-30T08:33:28;15.10;81.30
66086;DHT22;52868;49.758;9.586;2022-10-30T08:35:56;15.10;81.20
66086;DHT22;52868;49.758;9.586;2022-10-30T08:38:22;15.00;81.10
66086;DHT22;52868;49.758;9.586;2022-10-30T08:40:48;15.00;81.20
66086;DHT22;52868;49.758;9.586;2022-10-30T08:43:14;15.00;81.20
66086;DHT22;52868;49.758;9.586;2022-10-30T08:45:40;15.00;81.30
66086;DHT22;52868;49.758;9.586;2022-10-30T08:48:07;15.10;81.30
66086;DHT22;52868;49.758;9.586;2022-10-30T08:50:34;15.10;81.40
66086;DHT22;52868;49.758;9.586;2022-10-30T08:53:02;15.10;81.40
66086;DHT22;52868;49.758;9.586;2022-10-30T08:55:32;15.10;81.40
66086;DHT22;52868;49.758;9.586;2022-10-30T08:57:58;15.10;81.40
66086;DHT22;52868;49.758;9.586;2022-10-30T09:00:24;15.10;81.50
66086;DHT22;52868;49.758;9.586;2022-10-30T09:02:50;15.20;81.50
66086;DHT22;52868;49.758;9.586;2022-10-30T09:05:16;15.20;81.60
66086;DHT22;52868;49.758;9.586;2022-10-30T09:07:41;15.20;81.60
66086;DHT22;52868;49.758;9.586;2022-10-30T09:10:07;15.20;81.60
66086;DHT22;52868;49.758;9.586;2022-10-30T09:12:33;15.20;82.50
66086;DHT22;52868;49.758;9.586;2022-10-30T09:14:59;15.20;81.80
66086;DHT22;52868;49.758;9.586;2022-10-30T09:17:34;15.10;81.70
66086;DHT22;52868;49.758;9.586;2022-10-30T09:19:59;15.20;81.60
66086;DHT22;52868;49.758;9.586;2022-10-30T09:22:25;15.20;81.60
66086;DHT22;52868;49.758;9.586;2022-10-30T09:24:53;15.20;81.60
66086;DHT22;52868;49.758;9.586;2022-10-30T09:27:24;15.20;81.70
66086;DHT22;52868;49.758;9.586;2022-10-30T09:29:51;15.30;81.70
66086;DHT22;52868;49.758;9.586;2022-10-30T09:32:17;15.20;81.80
66086;DHT22;52868;49.758;9.586;2022-10-30T09:34:45;15.20;81.80
66086;DHT22;52868;49.758;9.586;2022-10-30T09:37:11;15.20;81.90
66086;DHT22;52868;49.758;9.586;2022-10-30T09:39:36;15.20;81.80
66086;DHT22;52868;49.758;9.586;2022-10-30T09:48:10;15.30;81.50
66086;DHT22;52868;49.758;9.586;2022-10-30T09:53:56;15.30;81.70
66086;DHT22;52868;49.758;9.586;2022-10-30T09:59:07;15.20;81.90
66086;DHT22;52868;49.758;9.586;2022-10-30T10:04:44;15.30;82.00
66086;DHT22;52868;49.758;9.586;2022-10-30T10:07:31;15.30;81.90
66086;DHT22;52868;49.758;9.586;2022-10-30T10:10:03;15.30;82.00
66086;DHT22;52868;49.758;9.586;2022-10-30T10:12:45;15.30;82.00
66086;DHT22;52868;49.758;9.586;2022-10-30T10:17:49;15.30;82.00
66086;DHT22;52868;49.758;9.586;2022-10-30T10:22:49;15.40;81.80
66086;DHT22;52868;49.758;9.586;2022-10-30T10:25:17;15.40;81.70
66086;DHT22;52868;49.758;9.586;2022-10-30T10:30:26;15.50;81.70
66086;DHT22;52868;49.758;9.586;2022-10-30T10:41:34;15.60;81.60
66086;DHT22;52868;49.758;9.586;2022-10-30T10:44:24;15.60;81.80
66086;DHT22;52868;49.758;9.586;2022-10-30T10:52:37;15.70;81.80
66086;DHT22;52868;49.758;9.586;2022-10-30T10:55:12;15.70;81.90
66086;DHT22;52868;49.758;9.586;2022-10-30T10:57:39;15.70;81.90
66086;DHT22;52868;49.758;9.586;2022-10-30T11:02:45;15.70;81.60
66086;DHT22;52868;49.758;9.586;2022-10-30T11:05:19;15.80;81.50
66086;DHT22;52868;49.758;9.586;2022-10-30T11:07:48;15.80;81.60
66086;DHT22;52868;49.758;9.586;2022-10-30T11:10:15;15.80;81.80
66086;DHT22;52868;49.758;9.586;2022-10-30T11:12:42;15.80;81.70
66086;DHT22;52868;49.758;9.586;2022-10-30T11:18:03;15.80;81.40
66086;DHT22;52868;49.758;9.586;2022-10-30T11:22:54;15.90;81.50
66086;DHT22;52868;49.758;9.586;2022-10-30T11:25:22;15.90;81.50
66086;DHT22;52868;49.758;9.586;2022-10-30T11:27:53;15.90;81.50
66086;DHT22;52868;49.758;9.586;2022-10-30T11:30:22;15.90;81.70
66086;DHT22;52868;49.758;9.586;2022-10-30T11:32:48;15.90;81.60
66086;DHT22;52868;49.758;9.586;2022-10-30T11:35:18;16.00;81.20
66086;DHT22;52868;49.758;9.586;2022-10-30T11:37:49;16.00;81.10
66086;DHT22;52868;49.758;9.586;2022-10-30T11:40:19;16.00;81.10
66086;DHT22;52868;49.758;9.586;2022-10-30T11:47:51;16.00;81.30
66086;DHT22;52868;49.758;9.586;2022-10-30T11:50:21;16.00;81.10
66086;DHT22;52868;49.758;9.586;2022-10-30T11:52:58;16.00;81.30
66086;DHT22;52868;49.758;9.586;2022-10-30T11:55:44;16.00;81.10
66086;DHT22;52868;49.758;9.586;2022-10-30T11:58:27;16.00;81.20
66086;DHT22;52868;49.758;9.586;2022-10-30T12:03:46;16.00;81.00
66086;DHT22;52868;49.758;9.586;2022-10-30T12:09:14;16.10;81.00
66086;DHT22;52868;49.758;9.586;2022-10-30T12:11:44;16.20;81.20
66086;DHT22;52868;49.758;9.586;2022-10-30T12:14:20;16.10;81.00
66086;DHT22;52868;49.758;9.586;2022-10-30T12:16:54;16.10;81.10
66086;DHT22;52868;49.758;9.586;2022-10-30T12:19:23;16.10;81.10
66086;DHT22;52868;49.758;9.586;2022-10-30T12:21:51;16.20;81.00
66086;DHT22;52868;49.758;9.586;2022-10-30T12:24:20;16.20;81.10
66086;DHT22;52868;49.758;9.586;2022-10-30T12:26:48;16.20;81.50
66086;DHT22;52868;49.758;9.586;2022-10-30T12:29:16;16.20;81.30
66086;DHT22;52868;49.758;9.586;2022-10-30T12:31:52;16.20;81.30
66086;DHT22;52868;49.758;9.586;2022-10-30T12:34:39;16.20;81.10
66086;DHT22;52868;49.758;9.586;2022-10-30T12:37:31;16.20;81.00
66086;DHT22;52868;49.758;9.586;2022-10-30T12:42:34;16.20;81.10
66086;DHT22;52868;49.758;9.586;2022-10-30T12:45:12;16.20;81.00
66086;DHT22;52868;49.758;9.586;2022-10-30T12:47:51;16.30;81.60
66086;DHT22;52868;49.758;9.586;2022-10-30T12:56:18;16.30;81.30
66086;DHT22;52868;49.758;9.586;2022-10-30T12:58:49;16.30;81.10
66086;DHT22;52868;49.758;9.586;2022-10-30T13:01:24;16.30;81.10
66086;DHT22;52868;49.758;9.586;2022-10-30T13:04:06;16.30;81.10
66086;DHT22;52868;49.758;9.586;2022-10-30T13:06:41;16.30;81.10
66086;DHT22;52868;49.758;9.586;2022-10-30T13:12:03;16.30;81.30
66086;DHT22;52868;49.758;9.586;2022-10-30T13:17:03;16.30;81.70
66086;DHT22;52868;49.758;9.586;2022-10-30T13:19:28;16.40;81.50
66086;DHT22;52868;49.758;9.586;2022-10-30T13:30:26;16.40;81.50
66086;DHT22;52868;49.758;9.586;2022-10-30T13:41:34;16.40;81.50
66086;DHT22;52868;49.758;9.586;2022-10-30T13:47:13;16.50;81.60
66086;DHT22;52868;49.758;9.586;2022-10-30T13:52:48;16.50;81.80
66086;DHT22;52868;49.758;9.586;2022-10-30T13:55:28;16.60;81.90
66086;DHT22;52868;49.758;9.586;2022-10-30T14:00:22;16.60;81.70
66086;DHT22;52868;49.758;9.586;2022-10-30T14:06:40;16.60;81.80
66086;DHT22;52868;49.758;9.586;2022-10-30T14:10:10;16.60;82.10
66086;DHT22;52868;49.758;9.586;2022-10-30T14:13:02;16.70;81.80
66086;DHT22;52868;49.758;9.586;2022-10-30T14:20:45;16.70;81.90
66086;DHT22;52868;49.758;9.586;2022-10-30T14:23:22;16.70;82.00
66086;DHT22;52868;49.758;9.586;2022-10-30T14:26:18;16.60;81.80
66086;DHT22;52868;49.758;9.586;2022-10-30T14:28:53;16.70;81.90
66086;DHT22;52868;49.758;9.586;2022-10-30T14:31:31;16.70;81.80
66086;DHT22;52868;49.758;9.586;2022-10-30T14:33:58;16.70;82.00
66086;DHT22;52868;49.758;9.586;2022-10-30T14:44:45;16.70;82.20
66086;DHT22;52868;49.758;9.586;2022-10-30T14:47:28;16.80;82.40
66086;DHT22;52868;49.758;9.586;2022-10-30T14:52:31;16.80;82.20
66086;DHT22;52868;49.758;9.586;2022-10-30T14:55:17;16.70;82.20
66086;DHT22;52868;49.758;9.586;2022-10-30T15:05:40;16.70;82.40
66086;DHT22;52868;49.758;9.586;2022-10-30T15:13:32;16.70;82.30
66086;DHT22;52868;49.758;9.586;2022-10-30T15:16:04;16.70;82.40
66086;DHT22;52868;49.758;9.586;2022-10-30T15:18:31;16.70;82.50
66086;DHT22;52868;49.758;9.586;2022-10-30T15:21:04;16.70;82.40
66086;DHT22;52868;49.758;9.586;2022-10-30T15:23:32;16.70;82.60
66086;DHT22;52868;49.758;9.586;2022-10-30T15:26:01;16.70;82.50
66086;DHT22;52868;49.758;9.586;2022-10-30T15:28:31;16.70;82.40
66086;DHT22;52868;49.758;9.586;2022-10-30T15:33:31;16.70;82.40
66086;DHT22;52868;49.758;9.586;2022-10-30T15:36:00;16.70;82.40
66086;DHT22;52868;49.758;9.586;2022-10-30T15:38:26;16.70;82.50
66086;DHT22;52868;49.758;9.586;2022-10-30T15:41:01;16.70;82.50
66086;DHT22;52868;49.758;9.586;2022-10-30T15:43:35;16.70;82.40
66086;DHT22;52868;49.758;9.586;2022-10-30T15:46:10;16.70;82.30
66086;DHT22;52868;49.758;9.586;2022-10-30T15:48:38;16.70;82.30
66086;DHT22;52868;49.758;9.586;2022-10-30T15:51:13;16.70;82.20
66086;DHT22;52868;49.758;9.586;2022-10-30T15:53:50;16.70;82.30
66086;DHT22;52868;49.758;9.586;2022-10-30T15:56:29;16.70;82.40
66086;DHT22;52868;49.758;9.586;2022-10-30T15:59:02;16.60;82.30
66086;DHT22;52868;49.758;9.586;2022-10-30T16:03:57;16.60;82.30
66086;DHT22;52868;49.758;9.586;2022-10-30T16:06:25;16.60;82.30
66086;DHT22;52868;49.758;9.586;2022-10-30T16:08:51;16.50;82.30
66086;DHT22;52868;49.758;9.586;2022-10-30T16:11:17;16.60;82.30
66086;DHT22;52868;49.758;9.586;2022-10-30T16:13:45;16.50;82.40
66086;DHT22;52868;49.758;9.586;2022-10-30T16:16:23;16.50;82.40
66086;DHT22;52868;49.758;9.586;2022-10-30T16:18:51;16.50;82.30
66086;DHT22;52868;49.758;9.586;2022-10-30T16:21:18;16.40;82.30
66086;DHT22;52868;49.758;9.586;2022-10-30T16:23:53;16.50;82.30
66086;DHT22;52868;49.758;9.586;2022-10-30T16:26:33;16.40;82.30
66086;DHT22;52868;49.758;9.586;2022-10-30T16:29:23;16.40;82.30
66086;DHT22;52868;49.758;9.586;2022-10-30T16:31:49;16.40;82.30
66086;DHT22;52868;49.758;9.586;2022-10-30T16:36:47;16.30;82.30
66086;DHT22;52868;49.758;9.586;2022-10-30T16:39:14;16.30;82.30
66086;DHT22;52868;49.758;9.586;2022-10-30T16:41:42;16.30;82.20
66086;DHT22;52868;49.758;9.586;2022-10-30T16:46:46;16.30;82.30
66086;DHT22;52868;49.758;9.586;2022-10-30T16:49:25;16.30;82.20
66086;DHT22;52868;49.758;9.586;2022-10-30T16:52:14;16.30;82.30
66086;DHT22;52868;49.758;9.586;2022-10-30T16:54:58;16.20;82.20
66086;DHT22;52868;49.758;9.586;2022-10-30T16:57:27;16.20;82.20
66086;DHT22;52868;49.758;9.586;2022-10-30T16:59:58;16.20;82.20
66086;DHT22;52868;49.758;9.586;2022-10-30T17:02:31;16.20;82.20
66086;DHT22;52868;49.758;9.586;2022-10-30T17:05:32;16.20;82.20
66086;DHT22;52868;49.758;9.586;2022-10-30T17:13:37;16.10;82.20
66086;DHT22;52868;49.758;9.586;2022-10-30T17:16:25;16.10;82.20
66086;DHT22;52868;49.758;9.586;2022-10-30T17:18:53;16.10;82.20
66086;DHT22;52868;49.758;9.586;2022-10-30T17:21:37;16.10;82.10
66086;DHT22;52868;49.758;9.586;2022-10-30T17:24:03;16.10;82.20
66086;DHT22;52868;49.758;9.586;2022-10-30T17:26:35;16.00;82.20
66086;DHT22;52868;49.758;9.586;2022-10-30T17:29:01;16.00;82.10
66086;DHT22;52868;49.758;9.586;2022-10-30T17:31:41;16.00;82.10
66086;DHT22;52868;49.758;9.586;2022-10-30T17:34:17;16.00;82.10
66086;DHT22;52868;49.758;9.586;2022-10-30T17:36:45;16.00;82.10
66086;DHT22;52868;49.758;9.586;2022-10-30T17:39:11;15.90;82.00
66086;DHT22;52868;49.758;9.586;2022-10-30T17:41:37;15.90;82.00
66086;DHT22;52868;49.758;9.586;2022-10-30T17:44:04;15.90;82.00
66086;DHT22;52868;49.758;9.586;2022-10-30T17:46:30;15.90;82.00
66086;DHT22;52868;49.758;9.586;2022-10-30T17:48:57;15.90;81.90
66086;DHT22;52868;49.758;9.586;2022-10-30T17:51:24;15.80;81.90
66086;DHT22;52868;49.758;9.586;2022-10-30T17:53:50;15.90;81.80
66086;DHT22;52868;49.758;9.586;2022-10-30T17:56:19;15.80;81.80
66086;DHT22;52868;49.758;9.586;2022-10-30T17:58:46;15.80;81.80
66086;DHT22;52868;49.758;9.586;2022-10-30T18:01:20;15.80;81.90
66086;DHT22;52868;49.758;9.586;2022-10-30T18:03:47;15.80;81.70
66086;DHT22;52868;49.758;9.586;2022-10-30T18:06:18;15.80;81.80
66086;DHT22;52868;49.758;9.586;2022-10-30T18:08:45;15.80;81.80
66086;DHT22;52868;49.758;9.586;2022-10-30T18:11:12;15.80;81.70
66086;DHT22;52868;49.758;9.586;2022-10-30T18:13:39;15.70;81.70
66086;DHT22;52868;49.758;9.586;2022-10-30T18:16:09;15.70;81.80
66086;DHT22;52868;49.758;9.586;2022-10-30T18:18:36;15.80;81.70
66086;DHT22;52868;49.758;9.586;2022-10-30T18:21:02;15.70;81.60
66086;DHT22;52868;49.758;9.586;2022-10-30T18:23:27;15.70;81.50
66086;DHT22;52868;49.758;9.586;2022-10-30T18:25:53;15.60;81.50
66086;DHT22;52868;49.758;9.586;2022-10-30T18:28:19;15.70;81.60
66086;DHT22;52868;49.758;9.586;2022-10-30T18:30:50;15.70;81.50
66086;DHT22;52868;49.758;9.586;2022-10-30T18:33:16;15.60;81.50
66086;DHT22;52868;49.758;9.586;2022-10-30T18:35:42;15.60;81.60
66086;DHT22;52868;49.758;9.586;2022-10-30T18:38:08;15.70;81.50
66086;DHT22;52868;49.758;9.586;2022-10-30T18:40:34;15.60;81.40